New Haven, Indiana
Current Conditions -  °F | °C
As of 10:54 PM on Wednesday 28 Jan 2015 (Local Time) from KFWA Reporting Station
Overcast Overcast  
Wind Chill: 17°   Ceiling: 20000
Heat Index: 27°   Visibility: 10mi
Dew Point: 20°   Wind: 10mph
Humidity: 75%   Direction: 140°SE
Pressure: 30.05"   Gusts: NA
Location:  41.07°N, 85.02°W
Report Text: KFWA 290354Z 14009KT 10SM FEW130 OVC200 M03/M07 A3005 RMK AO2 SLP187 T10281067
Loading
Personal Weather Stations






























Interactive Weather Map New forecast layout! Learn more

10-Day Weather Forecast

Advertisements
Track Severe Weather on mobile